createdAt,value
2023-01-21T00:00:34.347Z,93.60
2023-01-21T00:01:35.964Z,92.57
2023-01-21T00:02:37.717Z,92.54
2023-01-21T00:03:39.499Z,92.81
2023-01-21T00:04:41.136Z,93.12
2023-01-21T00:05:42.664Z,93.22
2023-01-21T00:06:44.213Z,92.95
2023-01-21T00:07:45.728Z,94.27
2023-01-21T00:08:47.295Z,94.97
2023-01-21T00:09:48.868Z,95.17
2023-01-21T00:10:50.428Z,95.29
2023-01-21T00:11:51.929Z,96.05
2023-01-21T00:12:53.473Z,96.29
2023-01-21T00:13:55.244Z,96.46
2023-01-21T00:14:56.807Z,96.54
2023-01-21T00:15:58.320Z,97.40
2023-01-21T00:16:59.923Z,97.42
2023-01-21T00:18:01.499Z,97.26
2023-01-21T00:19:03.040Z,96.70
2023-01-21T00:20:06.266Z,97.80
2023-01-21T00:21:07.824Z,97.44
2023-01-21T00:22:09.469Z,97.25
2023-01-21T00:23:11.079Z,97.41
2023-01-21T00:24:12.633Z,97.24
2023-01-21T00:25:14.227Z,98.10
2023-01-21T00:26:15.806Z,97.88
2023-01-21T00:27:17.308Z,98.04
2023-01-21T00:28:18.975Z,98.83
2023-01-21T00:29:21.789Z,97.70
2023-01-21T00:30:23.444Z,97.97
2023-01-21T00:31:25.318Z,97.09
2023-01-21T00:32:26.873Z,96.72
2023-01-21T00:33:29.211Z,97.28
2023-01-21T00:34:30.836Z,97.64
2023-01-21T00:35:32.408Z,97.32
2023-01-21T00:36:33.935Z,97.09
2023-01-21T00:37:35.621Z,97.75
2023-01-21T00:38:37.499Z,97.37
2023-01-21T00:39:42.784Z,96.92
2023-01-21T00:40:44.292Z,96.80
2023-01-21T00:41:45.970Z,97.45
2023-01-21T00:42:47.727Z,98.99
2023-01-21T00:43:49.227Z,99.32
2023-01-21T00:44:50.793Z,100.00
2023-01-21T00:45:52.415Z,100.00
2023-01-21T00:46:53.937Z,100.00
2023-01-21T00:47:55.469Z,100.00
2023-01-21T00:48:57.059Z,100.00
2023-01-21T00:49:58.595Z,100.00
2023-01-21T00:51:01.002Z,100.00
2023-01-21T00:52:02.724Z,99.46
2023-01-21T00:53:04.232Z,98.36
2023-01-21T00:54:05.823Z,98.51
2023-01-21T00:55:07.658Z,97.32
2023-01-21T00:56:12.600Z,97.30
2023-01-21T00:57:14.415Z,96.32
2023-01-21T00:58:16.119Z,95.90
2023-01-21T00:59:17.738Z,94.61
2023-01-21T01:00:19.636Z,96.48
2023-01-21T01:01:22.593Z,98.99
2023-01-21T01:02:24.189Z,100.00
2023-01-21T01:03:25.774Z,100.00
2023-01-21T01:04:27.333Z,100.00
2023-01-21T01:05:28.931Z,100.00
2023-01-21T01:06:30.511Z,100.00
2023-01-21T01:07:32.069Z,100.00
2023-01-21T01:08:33.681Z,100.00
2023-01-21T01:09:35.268Z,100.00
2023-01-21T01:10:37.756Z,100.00
2023-01-21T01:11:39.600Z,99.75
2023-01-21T01:12:41.176Z,98.90
2023-01-21T01:13:43.567Z,98.88
2023-01-21T01:14:45.097Z,99.06
2023-01-21T01:15:47.531Z,98.62
2023-01-21T01:16:49.818Z,98.66
2023-01-21T01:17:51.370Z,97.60
2023-01-21T01:18:53.076Z,97.40
2023-01-21T01:19:54.605Z,96.20
2023-01-21T01:20:57.087Z,95.98
2023-01-21T01:21:58.731Z,96.42
2023-01-21T01:23:00.277Z,95.18
2023-01-21T01:24:03.168Z,95.16
2023-01-21T01:25:04.987Z,95.93
2023-01-21T01:26:10.039Z,95.80
2023-01-21T01:27:11.579Z,95.46
2023-01-21T01:28:13.140Z,94.45
2023-01-21T01:29:14.735Z,95.49
2023-01-21T01:30:16.689Z,95.07
2023-01-21T01:31:20.042Z,95.35
2023-01-21T01:32:21.727Z,94.92
2023-01-21T01:33:24.789Z,95.27
2023-01-21T01:34:26.296Z,95.33
2023-01-21T01:35:28.157Z,95.60
2023-01-21T01:36:29.675Z,95.20
2023-01-21T01:37:31.209Z,95.71
2023-01-21T01:38:34.759Z,95.27
2023-01-21T01:39:36.285Z,94.25
2023-01-21T01:40:37.783Z,95.97
2023-01-21T01:41:39.329Z,96.24
2023-01-21T01:42:40.939Z,96.93
2023-01-21T01:44:01.929Z,97.65
2023-01-21T01:45:14.680Z,98.11
2023-01-21T01:46:16.453Z,98.51
2023-01-21T01:47:18.860Z,99.44
2023-01-21T01:48:28.772Z,100.00
2023-01-21T01:49:30.368Z,100.00
2023-01-21T01:50:39.566Z,100.00
2023-01-21T01:51:54.800Z,100.00
2023-01-21T01:53:00.955Z,100.00
2023-01-21T01:54:02.949Z,100.00
2023-01-21T01:55:05.876Z,100.00
2023-01-21T01:56:07.730Z,100.00
2023-01-21T01:57:12.787Z,100.00
2023-01-21T01:58:17.299Z,100.00
2023-01-21T01:59:19.542Z,100.00
2023-01-21T02:00:21.640Z,100.00
2023-01-21T02:01:24.103Z,100.00
2023-01-21T02:02:25.648Z,100.00
2023-01-21T02:03:45.378Z,100.00
2023-01-21T02:05:01.941Z,100.00
2023-01-21T02:06:03.629Z,100.00
2023-01-21T02:07:05.273Z,100.00
2023-01-21T02:08:08.688Z,100.00
2023-01-21T02:09:10.253Z,100.00
2023-01-21T02:10:14.437Z,100.00
2023-01-21T02:11:18.614Z,100.00
2023-01-21T02:12:20.554Z,100.00
2023-01-21T02:13:27.191Z,100.00
2023-01-21T02:14:30.526Z,100.00
2023-01-21T02:15:46.096Z,100.00
2023-01-21T02:17:05.775Z,100.00
2023-01-21T02:18:32.369Z,100.00
2023-01-21T02:19:53.443Z,100.00
2023-01-21T02:21:03.505Z,100.00
2023-01-21T02:22:16.280Z,100.00
2023-01-21T02:23:37.056Z,100.00
2023-01-21T02:25:05.582Z,100.00
2023-01-21T02:26:44.445Z,100.00
2023-01-21T02:28:09.180Z,100.00
2023-01-21T02:29:21.893Z,100.00
2023-01-21T02:30:55.737Z,100.00
2023-01-21T02:32:22.205Z,100.00
2023-01-21T02:33:34.625Z,100.00
2023-01-21T02:34:59.135Z,100.00
2023-01-21T02:36:45.074Z,100.00
2023-01-21T02:37:58.731Z,100.00
2023-01-21T02:39:16.929Z,100.00
2023-01-21T02:40:26.804Z,100.00
2023-01-21T02:41:38.353Z,100.00
2023-01-21T02:42:50.624Z,100.00
2023-01-21T02:44:13.583Z,100.00
2023-01-21T02:45:27.389Z,100.00
2023-01-21T02:47:02.969Z,100.00
2023-01-21T02:48:47.508Z,100.00
2023-01-21T02:50:13.100Z,100.00
2023-01-21T02:51:14.684Z,100.00
2023-01-21T02:52:21.247Z,100.00
2023-01-21T02:53:31.261Z,100.00
2023-01-21T02:54:41.447Z,100.00
2023-01-21T02:55:43.610Z,100.00
2023-01-21T02:56:45.178Z,100.00
2023-01-21T02:57:54.211Z,100.00
2023-01-21T02:59:06.000Z,100.00
2023-01-21T03:00:19.001Z,100.00
2023-01-21T03:01:43.433Z,100.00
2023-01-21T03:02:54.906Z,100.00
2023-01-21T03:04:02.167Z,100.00
2023-01-21T03:05:10.156Z,100.00
2023-01-21T03:06:44.633Z,100.00
2023-01-21T03:07:59.457Z,100.00
2023-01-21T03:09:13.185Z,100.00
2023-01-21T03:10:27.248Z,100.00
2023-01-21T03:11:29.341Z,100.00
2023-01-21T03:12:48.606Z,100.00
2023-01-21T03:14:13.436Z,100.00
2023-01-21T03:15:47.161Z,100.00
2023-01-21T03:17:00.052Z,100.00
2023-01-21T03:18:10.121Z,100.00
2023-01-21T03:19:14.973Z,100.00
2023-01-21T03:20:22.407Z,100.00
2023-01-21T03:21:27.341Z,100.00
2023-01-21T03:22:34.511Z,100.00
2023-01-21T03:23:42.426Z,100.00
2023-01-21T03:24:49.727Z,100.00
2023-01-21T03:25:51.429Z,100.00
2023-01-21T03:26:57.182Z,100.00
2023-01-21T03:28:02.330Z,100.00
2023-01-21T03:29:14.853Z,100.00
2023-01-21T03:30:20.047Z,100.00
2023-01-21T03:31:28.293Z,100.00
2023-01-21T03:32:34.341Z,100.00
2023-01-21T03:33:40.248Z,100.00
2023-01-21T03:34:47.198Z,100.00
2023-01-21T03:35:52.239Z,100.00
2023-01-21T03:37:20.261Z,100.00
2023-01-21T03:38:31.484Z,100.00
2023-01-21T03:39:48.660Z,100.00
2023-01-21T03:40:59.274Z,100.00
2023-01-21T03:42:01.687Z,100.00
2023-01-21T03:43:04.032Z,100.00
2023-01-21T03:44:06.429Z,100.00
2023-01-21T03:45:09.095Z,100.00
2023-01-21T03:46:21.677Z,100.00
2023-01-21T03:47:31.333Z,100.00
2023-01-21T03:48:39.147Z,100.00
2023-01-21T03:49:58.254Z,100.00
2023-01-21T03:51:06.820Z,100.00
2023-01-21T03:52:10.498Z,100.00
2023-01-21T03:53:12.144Z,100.00
2023-01-21T03:54:14.367Z,100.00
2023-01-21T03:55:18.406Z,100.00
2023-01-21T03:56:19.955Z,100.00
2023-01-21T03:57:21.525Z,100.00
2023-01-21T03:58:23.094Z,100.00
2023-01-21T03:59:24.735Z,100.00
2023-01-21T04:00:26.298Z,100.00
2023-01-21T04:01:27.946Z,100.00
2023-01-21T04:02:29.897Z,100.00
2023-01-21T04:03:31.473Z,100.00
2023-01-21T04:04:32.998Z,100.00
2023-01-21T04:05:36.010Z,100.00
2023-01-21T04:06:37.538Z,100.00
2023-01-21T04:07:39.106Z,100.00
2023-01-21T04:08:40.786Z,100.00
2023-01-21T04:09:42.385Z,100.00
2023-01-21T04:10:43.966Z,100.00
2023-01-21T04:11:45.570Z,100.00
2023-01-21T04:12:47.097Z,100.00
2023-01-21T04:13:48.592Z,100.00
2023-01-21T04:14:50.087Z,100.00
2023-01-21T04:15:51.611Z,100.00
2023-01-21T04:16:53.209Z,100.00
2023-01-21T04:17:54.769Z,100.00
2023-01-21T04:18:56.329Z,100.00
2023-01-21T04:19:57.829Z,100.00
2023-01-21T04:20:59.586Z,100.00
2023-01-21T04:22:01.597Z,100.00
2023-01-21T04:23:03.139Z,100.00
2023-01-21T04:24:05.099Z,100.00
2023-01-21T04:25:06.807Z,100.00
2023-01-21T04:26:08.440Z,100.00
2023-01-21T04:27:09.974Z,99.66
2023-01-21T04:28:11.477Z,100.00
2023-01-21T04:29:13.063Z,100.00
2023-01-21T04:30:15.013Z,99.87
2023-01-21T04:31:16.849Z,99.46
2023-01-21T04:32:18.466Z,100.00
2023-01-21T04:33:20.859Z,100.00
2023-01-21T04:34:22.471Z,100.00
2023-01-21T04:35:24.137Z,100.00
2023-01-21T04:36:25.771Z,100.00
2023-01-21T04:37:27.345Z,99.78
2023-01-21T04:38:28.925Z,100.00
2023-01-21T04:39:30.501Z,99.16
2023-01-21T04:40:32.248Z,98.75
2023-01-21T04:41:33.831Z,99.72
2023-01-21T04:42:35.387Z,99.12
2023-01-21T04:43:36.944Z,98.81
2023-01-21T04:44:38.453Z,99.25
2023-01-21T04:45:40.089Z,97.03
2023-01-21T04:46:41.860Z,96.51
2023-01-21T04:47:43.892Z,96.84
2023-01-21T04:48:45.420Z,96.75
2023-01-21T04:49:48.799Z,96.94
2023-01-21T04:50:50.374Z,97.61
2023-01-21T04:51:52.064Z,96.92
2023-01-21T04:52:53.589Z,97.24
2023-01-21T04:53:55.218Z,97.07
2023-01-21T04:54:56.755Z,96.16
2023-01-21T04:55:58.336Z,95.48
2023-01-21T04:56:59.951Z,94.79
2023-01-21T04:58:01.495Z,94.63
2023-01-21T04:59:03.078Z,94.45
2023-01-21T05:00:06.590Z,94.22
2023-01-21T05:01:08.182Z,94.70
2023-01-21T05:02:09.731Z,94.00
2023-01-21T05:03:11.333Z,94.41
2023-01-21T05:04:12.910Z,91.75
2023-01-21T05:05:14.488Z,92.18
2023-01-21T05:06:16.083Z,92.85
2023-01-21T05:07:19.546Z,92.97
2023-01-21T05:08:22.356Z,92.38
2023-01-21T05:09:23.902Z,91.35
2023-01-21T05:10:25.486Z,91.13
2023-01-21T05:11:27.093Z,89.21
2023-01-21T05:12:28.727Z,87.03
2023-01-21T05:13:30.301Z,86.94
2023-01-21T05:14:31.903Z,86.88
2023-01-21T05:15:33.546Z,87.84
2023-01-21T05:16:35.101Z,87.16
2023-01-21T05:17:36.719Z,86.69
2023-01-21T05:18:38.824Z,86.67
2023-01-21T05:19:40.359Z,86.99
2023-01-21T05:20:41.883Z,87.08
2023-01-21T05:21:43.378Z,87.63
2023-01-21T05:22:48.820Z,87.23
2023-01-21T05:23:50.366Z,86.74
2023-01-21T05:24:51.934Z,87.71
2023-01-21T05:25:53.473Z,87.99
2023-01-21T05:26:55.073Z,88.30
2023-01-21T05:27:56.658Z,88.79
2023-01-21T05:28:58.212Z,89.98
2023-01-21T05:29:59.726Z,89.43
2023-01-21T05:31:02.151Z,86.37
2023-01-21T05:32:03.884Z,86.27
2023-01-21T05:33:05.440Z,88.11
2023-01-21T05:34:07.130Z,88.61
2023-01-21T05:35:09.017Z,87.18
2023-01-21T05:36:10.657Z,86.75
2023-01-21T05:37:12.282Z,86.98
2023-01-21T05:38:13.823Z,87.02
2023-01-21T05:39:15.425Z,86.86
2023-01-21T05:40:18.084Z,85.56
2023-01-21T05:41:21.038Z,85.58
2023-01-21T05:42:22.783Z,85.28
2023-01-21T05:43:24.767Z,84.26
2023-01-21T05:44:26.599Z,85.72
2023-01-21T05:45:28.150Z,84.66
2023-01-21T05:46:29.759Z,85.87
2023-01-21T05:47:31.332Z,86.95
2023-01-21T05:48:33.019Z,87.31
2023-01-21T05:49:35.208Z,86.35
2023-01-21T05:50:38.597Z,85.75
2023-01-21T05:51:40.146Z,86.06
2023-01-21T05:52:41.998Z,87.08
2023-01-21T05:53:44.370Z,85.99
2023-01-21T05:55:00.689Z,83.72
2023-01-21T05:56:03.902Z,82.66
2023-01-21T05:57:05.518Z,84.06
2023-01-21T05:58:07.247Z,83.85
2023-01-21T05:59:09.574Z,80.86
2023-01-21T06:00:11.739Z,80.47
2023-01-21T06:01:13.272Z,82.86
2023-01-21T06:02:14.852Z,83.51
2023-01-21T06:03:17.673Z,82.12
2023-01-21T06:04:19.382Z,82.85
2023-01-21T06:05:20.995Z,83.02
2023-01-21T06:06:22.536Z,83.90
2023-01-21T06:07:24.160Z,83.60
2023-01-21T06:08:25.848Z,79.43
2023-01-21T06:09:27.388Z,81.25
2023-01-21T06:10:28.911Z,81.93
2023-01-21T06:11:30.741Z,82.79
2023-01-21T06:12:32.293Z,84.08
2023-01-21T06:13:33.883Z,84.21
2023-01-21T06:14:35.419Z,83.37
2023-01-21T06:15:36.997Z,83.57
2023-01-21T06:16:38.535Z,84.03
2023-01-21T06:17:40.525Z,84.38
2023-01-21T06:18:42.237Z,83.17
2023-01-21T06:19:43.793Z,82.76
2023-01-21T06:20:45.411Z,82.51
2023-01-21T06:21:46.906Z,82.73
2023-01-21T06:22:48.477Z,80.58
2023-01-21T06:23:49.985Z,81.63
2023-01-21T06:24:51.480Z,82.79
2023-01-21T06:25:53.122Z,81.13
2023-01-21T06:26:54.781Z,82.27
2023-01-21T06:27:56.716Z,81.74
2023-01-21T06:28:58.243Z,82.79
2023-01-21T06:29:59.748Z,83.29
2023-01-21T06:31:01.397Z,80.76
2023-01-21T06:32:03.410Z,80.47
2023-01-21T06:33:05.075Z,80.25
2023-01-21T06:34:06.601Z,79.45
2023-01-21T06:35:08.576Z,79.71
2023-01-21T06:36:10.454Z,76.48
2023-01-21T06:37:19.121Z,76.88
2023-01-21T06:38:20.628Z,75.91
2023-01-21T06:39:22.218Z,75.41
2023-01-21T06:40:24.694Z,74.11
2023-01-21T06:41:26.279Z,72.42
2023-01-21T06:42:27.877Z,71.75
2023-01-21T06:43:29.499Z,70.97
2023-01-21T06:44:31.201Z,71.28
2023-01-21T06:45:32.739Z,71.13
2023-01-21T06:46:34.404Z,70.91
2023-01-21T06:47:36.026Z,71.63
2023-01-21T06:48:37.600Z,72.28
2023-01-21T06:49:39.457Z,73.19
2023-01-21T06:50:41.004Z,72.93
2023-01-21T06:51:43.136Z,72.80
2023-01-21T06:52:47.078Z,72.70
2023-01-21T06:53:48.585Z,72.22
2023-01-21T06:54:50.239Z,71.71
2023-01-21T06:55:51.750Z,71.83
2023-01-21T06:56:53.327Z,73.03
2023-01-21T06:57:54.892Z,72.08
2023-01-21T06:58:56.494Z,72.45
2023-01-21T06:59:58.042Z,72.33
2023-01-21T07:00:59.604Z,71.61
2023-01-21T07:02:01.471Z,71.29
2023-01-21T07:03:03.092Z,70.94
2023-01-21T07:04:04.721Z,71.65
2023-01-21T07:05:06.705Z,71.09
2023-01-21T07:06:09.894Z,70.88
2023-01-21T07:07:11.549Z,72.34
2023-01-21T07:08:13.083Z,74.24
2023-01-21T07:09:14.624Z,73.95
2023-01-21T07:10:16.863Z,73.63
2023-01-21T07:11:18.566Z,74.15
2023-01-21T07:12:20.123Z,72.42
2023-01-21T07:13:21.701Z,72.06
2023-01-21T07:14:23.253Z,72.12
2023-01-21T07:15:24.904Z,74.93
2023-01-21T07:16:27.005Z,72.04
2023-01-21T07:17:28.535Z,72.77
2023-01-21T07:18:30.108Z,73.73
2023-01-21T07:19:31.660Z,74.24
2023-01-21T07:20:33.213Z,73.56
2023-01-21T07:21:34.799Z,72.66
2023-01-21T07:22:36.371Z,73.71
2023-01-21T07:23:37.929Z,73.76
2023-01-21T07:24:39.476Z,72.40
2023-01-21T07:25:41.030Z,71.48
2023-01-21T07:26:43.244Z,72.57
2023-01-21T07:27:44.756Z,73.78
2023-01-21T07:28:46.421Z,73.39
2023-01-21T07:29:47.990Z,73.24
2023-01-21T07:30:49.560Z,72.16
2023-01-21T07:31:51.521Z,72.31
2023-01-21T07:32:53.115Z,73.15
2023-01-21T07:33:54.848Z,72.73
2023-01-21T07:34:56.370Z,72.54
2023-01-21T07:35:57.877Z,71.54
2023-01-21T07:36:59.487Z,72.04
2023-01-21T07:38:01.569Z,72.04
2023-01-21T07:39:03.393Z,71.81
2023-01-21T07:40:05.340Z,71.78
2023-01-21T07:41:06.849Z,72.64
2023-01-21T07:42:10.299Z,72.48
2023-01-21T07:43:11.905Z,72.61
2023-01-21T07:44:13.508Z,72.19
2023-01-21T07:45:15.528Z,73.15
2023-01-21T07:46:21.353Z,72.02
2023-01-21T07:47:23.212Z,72.03
2023-01-21T07:48:24.793Z,71.33
2023-01-21T07:49:26.348Z,72.15
2023-01-21T07:50:27.885Z,72.75
2023-01-21T07:51:29.407Z,71.61
2023-01-21T07:52:32.266Z,71.42
2023-01-21T07:53:33.858Z,71.10
2023-01-21T07:54:35.378Z,70.76
2023-01-21T07:55:37.436Z,70.69
2023-01-21T07:56:39.178Z,71.18
2023-01-21T07:57:40.833Z,71.01
2023-01-21T07:58:42.486Z,71.02
2023-01-21T07:59:44.095Z,71.25
2023-01-21T08:00:45.697Z,70.53
2023-01-21T08:01:47.329Z,71.17
2023-01-21T08:02:54.176Z,72.50
2023-01-21T08:03:55.760Z,72.10
2023-01-21T08:04:57.272Z,71.56
2023-01-21T08:05:58.808Z,71.30
2023-01-21T08:07:01.945Z,70.32
2023-01-21T08:08:03.566Z,70.89
2023-01-21T08:09:05.239Z,70.40
2023-01-21T08:10:06.974Z,71.44
2023-01-21T08:11:08.565Z,69.96
2023-01-21T08:12:10.689Z,70.41
2023-01-21T08:13:12.210Z,70.01
2023-01-21T08:14:13.920Z,69.25
2023-01-21T08:15:15.723Z,70.01
2023-01-21T08:16:17.508Z,70.93
2023-01-21T08:17:19.120Z,71.27
2023-01-21T08:18:24.801Z,70.44
2023-01-21T08:19:26.514Z,69.94
2023-01-21T08:20:28.131Z,70.57
2023-01-21T08:21:29.825Z,71.26
2023-01-21T08:22:31.432Z,72.83
2023-01-21T08:23:32.943Z,69.10
2023-01-21T08:24:34.547Z,69.01
2023-01-21T08:25:36.224Z,70.10
2023-01-21T08:26:38.134Z,71.52
2023-01-21T08:27:39.673Z,70.15
2023-01-21T08:28:41.323Z,69.90
2023-01-21T08:29:43.169Z,69.23
2023-01-21T08:30:44.941Z,69.91
2023-01-21T08:31:46.626Z,70.89
2023-01-21T08:32:48.233Z,71.10
2023-01-21T08:33:53.367Z,70.87
2023-01-21T08:34:55.130Z,71.49
2023-01-21T08:36:01.186Z,70.25
2023-01-21T08:37:02.870Z,72.03
2023-01-21T08:38:04.674Z,70.82
2023-01-21T08:39:06.400Z,70.65
2023-01-21T08:40:08.635Z,70.03
2023-01-21T08:41:10.842Z,70.46
2023-01-21T08:42:12.411Z,72.75
2023-01-21T08:43:13.948Z,69.70
2023-01-21T08:44:15.528Z,70.39
2023-01-21T08:45:17.556Z,70.52
2023-01-21T08:46:19.330Z,69.53
2023-01-21T08:47:20.954Z,69.92
2023-01-21T08:48:22.611Z,70.04
2023-01-21T08:49:24.139Z,70.28
2023-01-21T08:50:25.916Z,71.83
2023-01-21T08:51:27.428Z,71.10
2023-01-21T08:52:28.957Z,72.47
2023-01-21T08:53:30.515Z,73.16
2023-01-21T08:54:32.034Z,70.99
2023-01-21T08:55:33.638Z,71.40
2023-01-21T08:56:35.318Z,71.39
2023-01-21T08:57:36.889Z,70.14
2023-01-21T08:58:38.627Z,70.17
2023-01-21T08:59:40.131Z,68.54
2023-01-21T09:00:41.999Z,69.39
2023-01-21T09:01:43.672Z,69.55
2023-01-21T09:02:45.477Z,68.30
2023-01-21T09:03:47.053Z,70.15
2023-01-21T09:04:50.560Z,68.56
2023-01-21T09:05:53.021Z,67.62
2023-01-21T09:06:54.652Z,67.81
2023-01-21T09:07:58.179Z,69.01
2023-01-21T09:09:00.013Z,68.87
2023-01-21T09:10:02.246Z,68.66
2023-01-21T09:11:06.955Z,67.65
2023-01-21T09:12:08.736Z,67.87
2023-01-21T09:13:10.955Z,68.79
2023-01-21T09:14:12.489Z,68.36
2023-01-21T09:15:14.142Z,69.29
2023-01-21T09:16:18.880Z,67.72
2023-01-21T09:17:20.529Z,68.62
2023-01-21T09:18:22.181Z,69.82
2023-01-21T09:19:24.013Z,68.23
2023-01-21T09:20:25.558Z,68.62
2023-01-21T09:21:27.586Z,69.12
2023-01-21T09:22:29.080Z,67.32
2023-01-21T09:23:34.102Z,66.60
2023-01-21T09:24:35.636Z,68.86
2023-01-21T09:25:37.154Z,69.95
2023-01-21T09:26:44.015Z,69.56
2023-01-21T09:27:45.572Z,68.56
2023-01-21T09:28:53.115Z,66.41
2023-01-21T09:29:54.860Z,68.19
2023-01-21T09:31:01.788Z,67.37
2023-01-21T09:32:05.246Z,65.68
2023-01-21T09:33:06.868Z,64.63
2023-01-21T09:34:11.759Z,66.07
2023-01-21T09:35:13.439Z,66.89
2023-01-21T09:36:19.081Z,66.09
2023-01-21T09:37:20.624Z,66.57
2023-01-21T09:38:22.492Z,66.51
2023-01-21T09:39:24.367Z,67.79
2023-01-21T09:40:25.889Z,66.66
2023-01-21T09:41:39.644Z,66.04
2023-01-21T09:42:42.801Z,65.03
2023-01-21T09:43:49.497Z,65.82
2023-01-21T09:44:53.758Z,68.74
2023-01-21T09:46:03.817Z,65.24
2023-01-21T09:47:29.014Z,65.89
2023-01-21T09:48:40.320Z,67.92
2023-01-21T09:49:51.341Z,65.13
2023-01-21T09:50:53.804Z,64.10
2023-01-21T09:52:13.787Z,64.29
2023-01-21T09:53:28.483Z,64.41
2023-01-21T09:54:34.133Z,65.01
2023-01-21T09:55:37.604Z,65.96
2023-01-21T09:57:09.925Z,64.66
2023-01-21T09:58:18.694Z,65.30
2023-01-21T09:59:40.067Z,64.33
2023-01-21T10:01:24.400Z,67.60
2023-01-21T10:02:32.085Z,66.82
2023-01-21T10:03:43.745Z,65.79
2023-01-21T10:04:59.811Z,64.90
2023-01-21T10:06:22.044Z,65.21
2023-01-21T10:07:32.756Z,65.75
2023-01-21T10:08:46.059Z,66.75
2023-01-21T10:10:18.225Z,66.41
2023-01-21T10:11:28.515Z,66.50
2023-01-21T10:13:16.276Z,67.09
2023-01-21T10:14:39.447Z,67.22
2023-01-21T10:15:56.049Z,67.34
2023-01-21T10:17:15.949Z,67.13
2023-01-21T10:18:24.888Z,67.11
2023-01-21T10:19:35.692Z,65.38
2023-01-21T10:20:52.287Z,64.82
2023-01-21T10:22:15.612Z,66.39
2023-01-21T10:23:29.327Z,64.98
2023-01-21T10:24:38.709Z,67.91
2023-01-21T10:25:41.146Z,68.50
2023-01-21T10:26:47.143Z,69.16
2023-01-21T10:27:48.744Z,69.69
2023-01-21T10:28:55.055Z,68.91
2023-01-21T10:30:02.217Z,70.65
2023-01-21T10:31:23.434Z,67.99
2023-01-21T10:32:27.140Z,67.85
2023-01-21T10:33:32.959Z,69.77
2023-01-21T10:34:40.109Z,66.04
2023-01-21T10:36:03.769Z,66.27
2023-01-21T10:37:23.376Z,67.69
2023-01-21T10:38:49.460Z,65.04
2023-01-21T10:39:56.836Z,68.41
2023-01-21T10:41:07.611Z,68.56
2023-01-21T10:42:34.655Z,69.00
2023-01-21T10:43:36.182Z,67.79
2023-01-21T10:44:56.534Z,69.81
2023-01-21T10:46:24.456Z,67.20
2023-01-21T10:47:48.081Z,67.25
2023-01-21T10:48:58.159Z,68.47
2023-01-21T10:50:30.276Z,68.07
2023-01-21T10:51:41.393Z,64.72
2023-01-21T10:52:50.636Z,67.45
2023-01-21T10:53:56.460Z,67.89
2023-01-21T10:55:21.053Z,66.49
2023-01-21T10:56:50.212Z,66.67
2023-01-21T10:57:58.401Z,69.35
2023-01-21T10:59:07.714Z,68.35
2023-01-21T11:00:34.083Z,67.62
2023-01-21T11:01:40.724Z,68.89
2023-01-21T11:02:42.555Z,68.50
2023-01-21T11:03:48.392Z,69.54
2023-01-21T11:04:51.246Z,68.66
2023-01-21T11:05:52.862Z,69.21
2023-01-21T11:07:03.239Z,68.28
2023-01-21T11:08:04.909Z,70.86
2023-01-21T11:09:10.708Z,70.51
2023-01-21T11:10:22.238Z,72.38
2023-01-21T11:11:30.362Z,69.94
2023-01-21T11:12:32.965Z,73.64
2023-01-21T11:13:35.519Z,71.57
2023-01-21T11:14:37.142Z,72.33
2023-01-21T11:15:44.576Z,74.31
2023-01-21T11:16:49.552Z,75.62
2023-01-21T11:17:59.701Z,74.89
2023-01-21T11:19:02.712Z,74.58
2023-01-21T11:20:16.735Z,76.13
2023-01-21T11:21:22.651Z,76.66
2023-01-21T11:22:25.253Z,76.14
2023-01-21T11:23:35.976Z,75.89
2023-01-21T11:24:46.502Z,75.32
2023-01-21T11:25:49.106Z,76.78
2023-01-21T11:26:55.410Z,77.32
2023-01-21T11:27:56.974Z,78.69
2023-01-21T11:29:16.156Z,78.46
2023-01-21T11:30:51.559Z,79.04
2023-01-21T11:32:04.980Z,79.53
2023-01-21T11:33:32.887Z,79.67
2023-01-21T11:34:34.605Z,80.16
2023-01-21T11:35:36.726Z,80.36
2023-01-21T11:36:53.445Z,80.54
2023-01-21T11:37:55.229Z,81.70
2023-01-21T11:39:05.485Z,80.62
2023-01-21T11:40:12.150Z,80.99
2023-01-21T11:41:13.626Z,81.22
2023-01-21T11:42:17.255Z,81.06
2023-01-21T11:43:48.234Z,81.66
2023-01-21T11:44:53.863Z,82.47
2023-01-21T11:45:55.773Z,83.59
2023-01-21T11:46:57.456Z,84.79
2023-01-21T11:48:00.277Z,83.39
2023-01-21T11:49:07.607Z,84.02
2023-01-21T11:50:30.325Z,83.00
2023-01-21T11:51:32.718Z,82.03
2023-01-21T11:52:34.239Z,82.61
2023-01-21T11:53:35.869Z,83.25
2023-01-21T11:54:41.685Z,83.59
2023-01-21T11:55:52.893Z,82.96
2023-01-21T11:57:02.871Z,83.31
2023-01-21T11:58:04.556Z,83.27
2023-01-21T11:59:34.743Z,83.37
2023-01-21T12:00:36.548Z,83.84
2023-01-21T12:01:38.176Z,83.52
2023-01-21T12:02:45.802Z,83.62
2023-01-21T12:04:01.013Z,83.50
2023-01-21T12:05:13.113Z,83.55
2023-01-21T12:06:24.331Z,83.71
2023-01-21T12:07:34.102Z,84.42
2023-01-21T12:08:38.534Z,85.17
2023-01-21T12:09:40.426Z,85.53
2023-01-21T12:10:46.667Z,85.59
2023-01-21T12:12:31.357Z,85.79
2023-01-21T12:13:46.208Z,85.71
2023-01-21T12:14:54.221Z,86.16
2023-01-21T12:16:14.313Z,88.09
2023-01-21T12:17:45.001Z,87.63
2023-01-21T12:19:20.310Z,87.88
2023-01-21T12:20:40.312Z,89.99
2023-01-21T12:22:03.661Z,89.91
2023-01-21T12:23:37.736Z,90.55
2023-01-21T12:25:07.724Z,90.59
2023-01-21T12:26:21.142Z,91.16
2023-01-21T12:27:41.076Z,91.69
2023-01-21T12:29:02.571Z,91.69
2023-01-21T12:30:16.785Z,92.15
2023-01-21T12:31:25.130Z,92.60
2023-01-21T12:32:37.384Z,92.67
2023-01-21T12:33:50.556Z,93.27
2023-01-21T12:34:58.184Z,93.66
2023-01-21T12:36:14.410Z,92.63
2023-01-21T12:37:33.175Z,93.98
2023-01-21T12:38:41.060Z,93.65
2023-01-21T12:39:44.996Z,94.60
2023-01-21T12:41:27.256Z,97.53
2023-01-21T12:42:34.969Z,98.46
2023-01-21T12:43:48.297Z,100.00
2023-01-21T12:45:04.850Z,100.00
2023-01-21T12:46:19.697Z,98.94
2023-01-21T12:47:40.162Z,99.93
2023-01-21T12:49:06.467Z,100.00
2023-01-21T12:50:36.232Z,100.00
2023-01-21T12:51:42.253Z,100.00
2023-01-21T12:53:13.549Z,99.94
2023-01-21T12:54:48.191Z,100.00
2023-01-21T12:55:58.931Z,99.01
2023-01-21T12:57:12.054Z,100.00
2023-01-21T12:58:18.513Z,100.00
2023-01-21T12:59:29.917Z,99.11
2023-01-21T13:00:37.830Z,97.78
2023-01-21T13:01:57.431Z,98.63
2023-01-21T13:03:18.558Z,97.97
2023-01-21T13:04:52.328Z,98.03
2023-01-21T13:06:17.071Z,97.96
2023-01-21T13:07:37.457Z,97.16
2023-01-21T13:08:54.132Z,97.50
2023-01-21T13:10:21.926Z,97.48
2023-01-21T13:11:38.474Z,98.13
2023-01-21T13:12:44.141Z,97.45
2023-01-21T13:13:54.374Z,96.66
2023-01-21T13:15:13.743Z,97.28
2023-01-21T13:16:15.338Z,97.33
2023-01-21T13:17:29.045Z,96.77
2023-01-21T13:18:36.827Z,97.72
2023-01-21T13:19:38.375Z,97.99
2023-01-21T13:20:46.620Z,100.00
2023-01-21T13:22:23.445Z,100.00
2023-01-21T13:24:06.067Z,100.00
2023-01-21T13:25:44.819Z,100.00
2023-01-21T13:27:21.233Z,100.00
2023-01-21T13:28:36.631Z,100.00
2023-01-21T13:29:47.354Z,100.00
2023-01-21T13:31:12.034Z,100.00
2023-01-21T13:32:23.798Z,100.00
2023-01-21T13:33:41.864Z,100.00
2023-01-21T13:34:55.867Z,100.00
2023-01-21T13:36:32.701Z,100.00
2023-01-21T13:37:47.259Z,100.00
2023-01-21T13:39:19.291Z,100.00
2023-01-21T13:41:05.988Z,100.00
2023-01-21T13:42:36.758Z,100.00
2023-01-21T13:44:03.380Z,100.00
2023-01-21T13:45:29.244Z,100.00
2023-01-21T13:46:58.684Z,100.00
2023-01-21T13:48:09.053Z,100.00
2023-01-21T13:49:16.714Z,100.00
2023-01-21T13:50:30.024Z,100.00
2023-01-21T13:51:48.971Z,100.00
2023-01-21T13:53:17.681Z,100.00
2023-01-21T13:54:21.928Z,100.00
2023-01-21T13:55:39.360Z,100.00
2023-01-21T13:57:04.047Z,100.00
2023-01-21T13:58:13.181Z,100.00
2023-01-21T13:59:24.233Z,100.00
2023-01-21T14:00:39.823Z,99.91
2023-01-21T14:01:49.551Z,100.00
2023-01-21T14:02:53.660Z,99.25
2023-01-21T14:04:05.998Z,99.24
2023-01-21T14:05:20.317Z,99.35
2023-01-21T14:06:40.203Z,98.99
2023-01-21T14:08:05.460Z,98.37
2023-01-21T14:09:21.285Z,96.56
2023-01-21T14:10:34.556Z,95.56
2023-01-21T14:12:30.198Z,95.09
2023-01-21T14:13:31.666Z,95.96
2023-01-21T14:15:10.695Z,97.56
2023-01-21T14:16:30.527Z,98.53
2023-01-21T14:17:44.132Z,99.53